Time;durP1;ratioP1;P1;durP2;ratioP2;P2;SDS_P1;SDS_P2;PMS_P1;PMS_P2;Temp;Humidity;BMP_temperature;BMP_pressure;BME280_temperature;BME280_humidity;BME280_pressure;Samples;Min_cycle;Max_cycle;Signal;HPM_P1;HPM_P2
2022/03/23 00:01:43;;;;;;;35.53;19.17;;;9.70;96.30;;;;;;5036800;28;20021;-77
2022/03/23 00:04:09;;;;;;;32.75;19.35;;;9.70;95.20;;;;;;5024870;28;20037;-77
2022/03/23 00:06:35;;;;;;;39.55;21.02;;;9.70;95.40;;;;;;5031098;28;20056;-78
2022/03/23 00:09:01;;;;;;;35.00;21.20;;;9.70;95.50;;;;;;5040589;28;20024;-78
2022/03/23 00:11:27;;;;;;;36.33;19.92;;;9.60;96.20;;;;;;5024984;28;20061;-77
2022/03/23 00:13:54;;;;;;;32.75;19.58;;;9.50;96.20;;;;;;5039098;28;20183;-78
2022/03/23 00:16:20;;;;;;;31.00;18.83;;;9.60;95.80;;;;;;5039467;28;20009;-78
2022/03/23 00:18:46;;;;;;;34.88;20.85;;;9.50;96.10;;;;;;5026893;28;20418;-78
2022/03/23 00:21:12;;;;;;;29.90;20.00;;;9.50;96.20;;;;;;5035199;28;20039;-78
2022/03/23 00:23:37;;;;;;;39.60;20.80;;;9.50;96.30;;;;;;5037800;28;20116;-79
2022/03/23 00:26:03;;;;;;;37.60;21.25;;;9.40;96.20;;;;;;5028587;28;20029;-78
2022/03/23 00:28:29;;;;;;;35.22;21.88;;;9.40;96.20;;;;;;5036097;28;20044;-78
2022/03/23 00:30:55;;;;;;;40.55;21.27;;;9.40;96.30;;;;;;5031389;28;20030;-79
2022/03/23 00:33:21;;;;;;;39.92;22.10;;;9.30;96.30;;;;;;5029739;28;21159;-78
2022/03/23 00:35:50;;;;;;;39.10;21.45;;;9.30;96.00;;;;;;5036894;28;20025;-78
2022/03/23 00:38:17;;;;;;;40.28;23.75;;;9.20;95.40;;;;;;5033397;28;20041;-78
2022/03/23 00:40:44;;;;;;;40.58;23.05;;;9.20;95.90;;;;;;5032863;28;20043;-78
2022/03/23 00:43:10;;;;;;;39.03;23.10;;;9.30;95.30;;;;;;5031765;28;20014;-78
2022/03/23 00:45:37;;;;;;;40.38;20.88;;;9.20;94.60;;;;;;5031822;28;20481;-77
2022/03/23 00:48:04;;;;;;;36.58;22.27;;;9.10;95.40;;;;;;5035164;28;20346;-77
2022/03/23 00:50:30;;;;;;;43.50;22.08;;;9.10;95.40;;;;;;5027405;28;20049;-77
2022/03/23 00:52:56;;;;;;;44.97;23.00;;;9.10;95.60;;;;;;5037364;28;20029;-77
2022/03/23 00:55:21;;;;;;;39.88;22.33;;;9.10;95.90;;;;;;5029534;28;20033;-77
2022/03/23 00:57:47;;;;;;;42.58;21.83;;;9.10;96.10;;;;;;5042123;28;20025;-77
2022/03/23 01:00:16;;;;;;;35.63;21.27;;;9.00;95.00;;;;;;5045345;28;20032;-77
2022/03/23 01:02:43;;;;;;;40.05;20.70;;;8.90;95.70;;;;;;5030395;28;20021;-77
2022/03/23 01:05:09;;;;;;;38.85;22.70;;;8.90;95.60;;;;;;5028206;28;20107;-78
2022/03/23 01:07:36;;;;;;;37.25;20.40;;;8.90;95.90;;;;;;5034450;28;20386;-77
2022/03/23 01:10:03;;;;;;;42.55;21.45;;;8.90;96.30;;;;;;5031884;28;20029;-77
2022/03/23 01:12:29;;;;;;;37.47;20.95;;;8.90;96.10;;;;;;5040679;28;20470;-77
2022/03/23 01:14:55;;;;;;;35.83;21.60;;;8.80;95.30;;;;;;5044430;28;20029;-78
2022/03/23 01:17:20;;;;;;;39.13;21.20;;;8.70;96.10;;;;;;5041272;28;20029;-78
2022/03/23 01:19:46;;;;;;;38.97;21.35;;;8.70;95.50;;;;;;5028038;28;20021;-78
2022/03/23 01:22:12;;;;;;;35.05;20.38;;;8.70;95.50;;;;;;5029662;28;20515;-78
2022/03/23 01:24:38;;;;;;;42.60;24.52;;;8.60;95.60;;;;;;5035740;28;20128;-77
2022/03/23 01:27:03;;;;;;;41.92;23.17;;;8.60;96.00;;;;;;5041703;28;20054;-78
2022/03/23 01:29:30;;;;;;;38.50;23.25;;;8.60;96.10;;;;;;5044409;28;20044;-77
2022/03/23 01:31:56;;;;;;;39.35;23.63;;;8.60;95.80;;;;;;5028722;28;20033;-78
2022/03/23 01:34:22;;;;;;;45.22;25.85;;;8.60;96.40;;;;;;5039013;28;20032;-77
2022/03/23 01:36:47;;;;;;;44.83;27.08;;;8.50;95.80;;;;;;5046509;28;20113;-78
2022/03/23 01:39:13;;;;;;;39.55;23.70;;;8.40;97.40;;;;;;5042496;28;20040;-78
2022/03/23 01:41:40;;;;;;;40.38;23.52;;;7.90;97.90;;;;;;5032527;28;20033;-78
2022/03/23 01:44:21;;;;;;;41.45;22.85;;;8.00;97.70;;;;;;5039995;28;20023;-77
2022/03/23 01:47:13;;;;;;;39.35;22.20;;;8.10;97.20;;;;;;5028870;28;20022;-77
2022/03/23 01:49:48;;;;;;;39.28;24.77;;;8.10;97.70;;;;;;5036672;28;20037;-77
2022/03/23 01:52:16;;;;;;;46.95;25.58;;;7.90;97.90;;;;;;5030036;28;20057;-77
2022/03/23 01:54:42;;;;;;;47.08;24.45;;;7.90;98.00;;;;;;5036546;28;20063;-77
2022/03/23 01:57:10;;;;;;;45.63;25.60;;;7.90;96.60;;;;;;5036848;28;20030;-78
2022/03/23 01:59:37;;;;;;;47.17;25.70;;;8.00;97.50;;;;;;5047210;28;20028;-78
2022/03/23 02:02:04;;;;;;;47.33;26.15;;;8.00;97.30;;;;;;5043971;28;20075;-77
2022/03/23 02:04:30;;;;;;;49.22;25.23;;;8.00;97.70;;;;;;5026704;28;20147;-77
2022/03/23 02:06:55;;;;;;;47.03;25.58;;;8.00;97.50;;;;;;5038592;28;20457;-77
2022/03/23 02:09:22;;;;;;;44.42;25.02;;;8.00;97.50;;;;;;5027418;28;20056;-77
2022/03/23 02:11:49;;;;;;;48.78;25.52;;;7.90;97.90;;;;;;5039323;28;20025;-77
2022/03/23 02:14:15;;;;;;;51.80;25.30;;;7.90;97.60;;;;;;5042106;28;20122;-77
2022/03/23 02:16:43;;;;;;;47.03;24.92;;;7.90;97.80;;;;;;5030896;28;20115;-77
2022/03/23 02:19:10;;;;;;;45.55;24.75;;;7.90;97.50;;;;;;5034177;28;20034;-77
2022/03/23 02:21:36;;;;;;;53.05;27.48;;;7.90;97.40;;;;;;5042468;28;20029;-77
2022/03/23 02:24:03;;;;;;;53.08;27.90;;;7.80;96.40;;;;;;5025869;28;20029;-77
2022/03/23 02:26:30;;;;;;;45.30;26.92;;;7.80;97.10;;;;;;5038846;28;20436;-77
2022/03/23 02:28:56;;;;;;;46.97;28.35;;;7.70;96.40;;;;;;5050488;28;20021;-77
2022/03/23 02:31:22;;;;;;;55.80;26.83;;;7.70;96.60;;;;;;5031096;28;20038;-77
2022/03/23 02:33:47;;;;;;;58.92;29.67;;;7.70;96.80;;;;;;5042788;28;20028;-77
2022/03/23 02:36:13;;;;;;;55.05;28.60;;;7.70;96.80;;;;;;5029161;28;20034;-77
2022/03/23 02:38:39;;;;;;;51.50;28.58;;;7.70;97.30;;;;;;5033167;28;20029;-77
2022/03/23 02:41:05;;;;;;;54.58;27.25;;;7.60;97.90;;;;;;5038702;28;20014;-77
2022/03/23 02:43:30;;;;;;;44.28;26.40;;;7.60;97.60;;;;;;5023678;28;20033;-78
2022/03/23 02:45:56;;;;;;;47.92;25.08;;;7.60;97.90;;;;;;5032042;28;20040;-77
2022/03/23 02:48:21;;;;;;;38.58;23.92;;;7.30;98.60;;;;;;5030950;28;20104;-78
2022/03/23 02:50:47;;;;;;;47.70;26.75;;;7.30;99.00;;;;;;5038513;28;20475;-78
2022/03/23 03:02:16;;;;;;;53.05;29.00;;;7.40;97.50;;;;;;5030660;28;20095;-78
2022/03/23 03:04:42;;;;;;;51.35;27.27;;;7.30;98.20;;;;;;5027669;28;20424;-78
2022/03/23 03:07:08;;;;;;;51.35;28.52;;;7.30;97.90;;;;;;5030094;28;20358;-78
2022/03/23 03:09:34;;;;;;;51.08;28.77;;;7.30;97.00;;;;;;5029362;28;20025;-78
2022/03/23 03:12:01;;;;;;;49.78;29.15;;;7.30;98.20;;;;;;5025876;28;20128;-77
2022/03/23 03:14:27;;;;;;;54.33;28.58;;;7.30;98.10;;;;;;5037118;28;20489;-77
2022/03/23 03:16:53;;;;;;;53.90;30.38;;;7.20;98.10;;;;;;5023078;28;20063;-77
2022/03/23 03:19:19;;;;;;;49.92;29.63;;;7.20;98.20;;;;;;5030148;28;20033;-77
2022/03/23 03:21:45;;;;;;;54.58;30.42;;;7.20;98.40;;;;;;5036116;28;20067;-78
2022/03/23 03:24:11;;;;;;;50.20;27.55;;;7.20;97.80;;;;;;5035284;28;20033;-77
2022/03/23 03:26:36;;;;;;;51.50;28.30;;;7.20;98.10;;;;;;5029745;28;20087;-78
2022/03/23 03:29:04;;;;;;;58.17;29.30;;;7.10;97.30;;;;;;5035551;28;20108;-78
2022/03/23 03:31:30;;;;;;;57.78;32.40;;;7.10;97.70;;;;;;5031496;28;20042;-78
2022/03/23 03:33:56;;;;;;;57.92;29.42;;;7.10;98.00;;;;;;5038487;28;20043;-78
2022/03/23 03:36:21;;;;;;;58.90;30.38;;;7.10;98.00;;;;;;5043250;28;20038;-78
2022/03/23 03:38:47;;;;;;;52.47;28.92;;;7.00;98.50;;;;;;5042272;28;20029;-78
2022/03/23 03:41:13;;;;;;;46.95;26.95;;;6.90;98.70;;;;;;5023821;28;20045;-77
2022/03/23 03:43:39;;;;;;;48.50;27.98;;;6.90;98.50;;;;;;5033334;28;20063;-78
2022/03/23 03:46:10;;;;;;;54.83;28.20;;;6.90;98.50;;;;;;5038321;28;20013;-78
2022/03/23 03:48:36;;;;;;;56.85;30.40;;;6.90;98.10;;;;;;5027533;28;20034;-77
2022/03/23 03:51:02;;;;;;;50.08;27.38;;;6.40;99.80;;;;;;5038792;28;20100;-78
2022/03/23 03:53:28;;;;;;;48.55;26.60;;;6.40;99.30;;;;;;5024786;28;20046;-78
2022/03/23 03:55:53;;;;;;;54.33;29.02;;;6.60;99.00;;;;;;5036505;28;20033;-79
2022/03/23 03:58:19;;;;;;;54.72;29.17;;;6.60;98.90;;;;;;5029784;28;20022;-78
2022/03/23 04:00:45;;;;;;;52.65;30.88;;;6.60;99.20;;;;;;5031816;28;20028;-77
2022/03/23 04:03:12;;;;;;;47.45;28.10;;;6.60;99.20;;;;;;5039254;28;20025;-77
2022/03/23 04:05:38;;;;;;;47.55;28.25;;;6.60;99.20;;;;;;5036260;28;20112;-78
2022/03/23 04:08:05;;;;;;;52.80;29.48;;;6.50;99.60;;;;;;5025927;28;20558;-77
2022/03/23 04:10:32;;;;;;;52.30;28.27;;;6.50;99.40;;;;;;5036877;28;20112;-77
2022/03/23 04:12:57;;;;;;;49.28;28.42;;;6.50;98.50;;;;;;5023856;28;20172;-78
2022/03/23 04:15:25;;;;;;;57.05;29.45;;;6.40;99.30;;;;;;5037314;28;20451;-77
2022/03/23 04:17:52;;;;;;;61.20;34.20;;;6.50;99.00;;;;;;5023755;28;20123;-78
2022/03/23 04:20:17;;;;;;;62.05;33.92;;;6.40;98.80;;;;;;5038063;28;20497;-77
2022/03/23 04:22:43;;;;;;;56.33;31.88;;;6.40;99.40;;;;;;5035334;28;20029;-78
2022/03/23 04:25:10;;;;;;;56.67;30.02;;;6.40;99.70;;;;;;5035544;28;20084;-77
2022/03/23 04:27:52;;;;;;;61.15;32.85;;;6.40;99.20;;;;;;5032874;28;20037;-77
2022/03/23 04:30:19;;;;;;;55.53;30.38;;;6.30;99.10;;;;;;5023856;28;20037;-77
2022/03/23 04:32:46;;;;;;;57.97;33.95;;;6.40;98.20;;;;;;5046339;28;20033;-78
2022/03/23 04:35:12;;;;;;;58.85;35.58;;;6.30;98.20;;;;;;5019696;28;20176;-77
2022/03/23 04:37:42;;;;;;;67.10;36.17;;;6.30;98.50;;;;;;5036923;28;20075;-77
2022/03/23 04:40:09;;;;;;;63.03;35.17;;;6.20;97.50;;;;;;5029444;28;20032;-77
2022/03/23 04:42:37;;;;;;;64.07;35.58;;;6.20;98.90;;;;;;5037743;28;20029;-77
2022/03/23 04:45:04;;;;;;;56.15;32.15;;;6.10;99.10;;;;;;5032477;28;20022;-77
2022/03/23 04:47:29;;;;;;;68.57;35.45;;;6.10;99.50;;;;;;5050180;28;20109;-78
2022/03/23 04:49:55;;;;;;;64.50;34.90;;;6.10;99.30;;;;;;5039839;28;20116;-78
2022/03/23 04:52:20;;;;;;;56.20;32.47;;;6.00;99.30;;;;;;5050849;28;20044;-77
2022/03/23 04:54:46;;;;;;;50.95;29.98;;;6.10;99.30;;;;;;5036241;28;20431;-78
2022/03/23 04:57:12;;;;;;;57.75;31.38;;;6.00;99.00;;;;;;5041800;28;20495;-78
2022/03/23 04:59:37;;;;;;;61.03;32.38;;;6.00;98.90;;;;;;5045904;28;20060;-77
2022/03/23 05:02:03;;;;;;;61.30;31.92;;;5.90;98.90;;;;;;5041811;28;20469;-77
2022/03/23 05:04:29;;;;;;;59.78;32.50;;;5.80;98.80;;;;;;5033138;28;20067;-77
2022/03/23 05:06:55;;;;;;;55.83;31.70;;;5.80;98.60;;;;;;5028860;28;20446;-77
2022/03/23 05:09:20;;;;;;;53.03;31.50;;;5.80;99.20;;;;;;5042994;28;20572;-77
2022/03/23 05:11:46;;;;;;;55.60;30.20;;;5.80;99.60;;;;;;5038299;28;20080;-78
2022/03/23 05:14:11;;;;;;;58.67;34.53;;;5.80;99.80;;;;;;5044584;28;20025;-78
2022/03/23 05:16:38;;;;;;;57.00;32.13;;;5.70;99.90;;;;;;5035203;28;20036;-78
2022/03/23 05:19:04;;;;;;;60.78;33.38;;;5.70;99.90;;;;;;5041510;28;20028;-78
2022/03/23 05:21:29;;;;;;;64.28;33.28;;;5.70;99.90;;;;;;5041248;28;20036;-78
2022/03/23 05:23:55;;;;;;;62.28;32.78;;;5.70;99.80;;;;;;5031368;28;20088;-78
2022/03/23 05:26:21;;;;;;;57.22;31.42;;;5.60;99.90;;;;;;5040272;28;20087;-78
2022/03/23 05:28:46;;;;;;;63.88;32.35;;;5.60;99.90;;;;;;5041959;28;20454;-78
2022/03/23 05:31:12;;;;;;;62.53;32.05;;;5.60;99.90;;;;;;5047903;28;20036;-78
2022/03/23 05:33:37;;;;;;;58.83;31.30;;;5.70;99.40;;;;;;5030106;28;20029;-78
2022/03/23 05:36:03;;;;;;;62.80;31.02;;;5.60;99.00;;;;;;5042714;28;20404;-78
2022/03/23 05:38:29;;;;;;;58.65;31.73;;;5.60;98.90;;;;;;5028170;28;20032;-78
2022/03/23 05:40:54;;;;;;;61.35;33.20;;;5.60;98.80;;;;;;5042243;28;20018;-78
2022/03/23 05:43:20;;;;;;;62.75;33.00;;;5.60;99.20;;;;;;5031410;28;20063;-78
2022/03/23 05:45:46;;;;;;;63.22;32.65;;;5.60;99.20;;;;;;5033717;28;20021;-78
2022/03/23 05:48:11;;;;;;;57.28;30.95;;;5.50;99.90;;;;;;5033400;28;20033;-78
2022/03/23 05:50:37;;;;;;;58.88;29.85;;;5.60;99.90;;;;;;5035927;28;20421;-78
2022/03/23 05:53:03;;;;;;;65.07;32.92;;;5.50;99.90;;;;;;5045894;28;20041;-77
2022/03/23 05:55:29;;;;;;;64.60;34.38;;;5.50;99.90;;;;;;5034765;28;20040;-78
2022/03/23 05:57:55;;;;;;;72.18;35.30;;;5.60;99.90;;;;;;5035358;28;20026;-78
2022/03/23 06:00:21;;;;;;;62.35;34.20;;;5.50;99.90;;;;;;5033090;28;20051;-78
2022/03/23 06:02:47;;;;;;;67.68;37.58;;;5.50;99.90;;;;;;5037546;28;20041;-78
2022/03/23 06:05:14;;;;;;;62.45;35.00;;;5.50;99.60;;;;;;5030876;28;20049;-78
2022/03/23 06:07:39;;;;;;;69.45;35.03;;;5.60;99.90;;;;;;5039176;28;20033;-78
2022/03/23 06:10:09;;;;;;;75.70;40.60;;;5.60;99.90;;;;;;5030128;28;20021;-78
2022/03/23 06:12:37;;;;;;;63.28;35.63;;;5.50;99.90;;;;;;5041303;28;20505;-78
2022/03/23 06:15:05;;;;;;;72.35;37.70;;;5.40;99.90;;;;;;5030756;28;20034;-77
2022/03/23 06:17:31;;;;;;;67.55;38.38;;;5.50;99.90;;;;;;5031402;28;20053;-78
2022/03/23 06:19:56;;;;;;;73.78;37.83;;;5.50;99.60;;;;;;5033261;28;20053;-78
2022/03/23 06:22:22;;;;;;;73.32;36.13;;;5.50;99.90;;;;;;5039597;28;20025;-78
2022/03/23 06:24:48;;;;;;;60.97;34.92;;;5.50;99.40;;;;;;5027900;28;20380;-78
2022/03/23 06:27:14;;;;;;;67.28;34.15;;;5.50;99.60;;;;;;5039912;28;20069;-79
2022/03/23 06:29:39;;;;;;;65.47;35.05;;;5.50;99.90;;;;;;5027577;28;20014;-78
2022/03/23 06:32:05;;;;;;;61.17;32.78;;;5.50;99.90;;;;;;5037437;28;20036;-78
2022/03/23 06:34:31;;;;;;;65.45;33.08;;;5.50;99.90;;;;;;5029092;28;20021;-78
2022/03/23 06:36:58;;;;;;;59.72;33.85;;;5.50;99.90;;;;;;5035247;28;20037;-78
2022/03/23 06:39:23;;;;;;;62.60;34.08;;;5.60;99.90;;;;;;5035006;28;20140;-78
2022/03/23 06:41:49;;;;;;;58.58;34.10;;;5.60;99.90;;;;;;5032755;28;20163;-79
2022/03/23 06:44:15;;;;;;;65.10;35.50;;;5.60;99.90;;;;;;5036424;28;20362;-78
2022/03/23 06:46:41;;;;;;;63.58;33.42;;;5.60;99.90;;;;;;5029244;28;20018;-78
2022/03/23 06:49:07;;;;;;;67.00;35.53;;;5.70;99.90;;;;;;5034134;28;20041;-79
2022/03/23 06:51:33;;;;;;;60.53;35.60;;;5.70;99.90;;;;;;5028476;28;20029;-79
2022/03/23 06:53:58;;;;;;;66.63;36.63;;;5.80;99.90;;;;;;5033081;28;20681;-78
2022/03/23 06:56:24;;;;;;;58.40;33.45;;;5.80;99.90;;;;;;5036943;28;20026;-78
2022/03/23 06:58:50;;;;;;;62.22;33.67;;;5.90;99.90;;;;;;5042407;28;20029;-78
2022/03/23 07:01:15;;;;;;;57.55;32.95;;;5.90;99.90;;;;;;5038704;28;20032;-78
2022/03/23 07:03:41;;;;;;;65.03;33.90;;;6.00;99.90;;;;;;5038980;28;20025;-78
2022/03/23 07:06:06;;;;;;;58.08;35.03;;;6.10;99.90;;;;;;5029992;28;20039;-78
2022/03/23 07:11:16;;;;;;;64.30;32.72;;;6.10;99.90;;;;;;5035764;28;20040;-77
2022/03/23 07:13:42;;;;;;;58.30;31.27;;;6.20;99.90;;;;;;5030986;28;20042;-77
2022/03/23 07:16:07;;;;;;;59.28;33.78;;;6.30;99.90;;;;;;5037845;28;20035;-76
2022/03/23 07:18:33;;;;;;;67.47;35.88;;;6.40;99.90;;;;;;5028101;28;20417;-77
2022/03/23 07:20:59;;;;;;;66.38;34.90;;;6.50;99.90;;;;;;5044164;28;20045;-77
2022/03/23 07:23:24;;;;;;;55.42;32.88;;;6.50;99.90;;;;;;5037099;28;20025;-78
2022/03/23 07:25:50;;;;;;;60.58;34.40;;;6.60;99.90;;;;;;5028301;28;20091;-78
2022/03/23 07:28:15;;;;;;;57.15;31.90;;;6.70;99.90;;;;;;5043851;28;20048;-77
2022/03/23 07:30:41;;;;;;;64.00;33.97;;;6.70;99.90;;;;;;5035714;28;20045;-77
2022/03/23 07:33:08;;;;;;;59.20;33.03;;;6.80;99.90;;;;;;5033192;28;20056;-78
2022/03/23 07:35:33;;;;;;;61.00;32.95;;;6.90;99.90;;;;;;5028681;28;20056;-78
2022/03/23 07:37:59;;;;;;;56.63;32.72;;;7.00;99.90;;;;;;5050003;28;20071;-78
2022/03/23 07:40:25;;;;;;;60.90;32.78;;;7.20;99.90;;;;;;5031760;28;20022;-77
2022/03/23 07:42:50;;;;;;;61.30;32.45;;;7.20;99.90;;;;;;5037681;28;20026;-77
2022/03/23 07:45:16;;;;;;;61.03;32.40;;;7.40;99.90;;;;;;5028041;28;20025;-77
2022/03/23 07:47:42;;;;;;;59.95;33.63;;;7.50;99.90;;;;;;5031396;28;20033;-77
2022/03/23 07:50:08;;;;;;;56.38;30.80;;;7.60;99.90;;;;;;5029219;28;20123;-77
2022/03/23 07:52:34;;;;;;;53.70;30.10;;;7.70;99.90;;;;;;5030216;28;20461;-77
2022/03/23 07:55:02;;;;;;;51.92;30.08;;;7.80;99.90;;;;;;5033388;28;20021;-78
2022/03/23 07:57:29;;;;;;;52.22;29.08;;;8.00;99.90;;;;;;5035834;28;20046;-77
2022/03/23 07:59:55;;;;;;;49.63;26.67;;;8.20;99.90;;;;;;5031807;28;20417;-77
2022/03/23 08:02:26;;;;;;;48.53;27.58;;;8.40;99.90;;;;;;5023983;28;20459;-78
2022/03/23 08:04:54;;;;;;;50.63;27.70;;;8.60;99.90;;;;;;5025304;28;20140;-77
2022/03/23 08:07:20;;;;;;;48.80;26.02;;;8.70;99.90;;;;;;5034185;28;20355;-77
2022/03/23 08:09:45;;;;;;;44.28;26.20;;;8.90;99.90;;;;;;5034408;28;20070;-77
2022/03/23 08:12:11;;;;;;;46.55;26.20;;;9.10;99.90;;;;;;5040329;28;20426;-77
2022/03/23 08:14:37;;;;;;;47.63;27.05;;;9.20;99.90;;;;;;5037034;28;20041;-78
2022/03/23 08:17:03;;;;;;;44.20;27.77;;;9.50;99.90;;;;;;5026706;28;20466;-77
2022/03/23 08:19:29;;;;;;;46.78;28.13;;;9.60;99.90;;;;;;5028588;28;20033;-78
2022/03/23 08:21:55;;;;;;;52.35;27.88;;;9.80;99.90;;;;;;5028124;28;20017;-77
2022/03/23 08:24:21;;;;;;;48.70;26.20;;;10.00;99.90;;;;;;5031272;28;20029;-78
2022/03/23 08:26:46;;;;;;;45.90;29.42;;;10.20;99.90;;;;;;5036481;28;20026;-78
2022/03/23 08:29:12;;;;;;;46.50;27.98;;;10.40;99.90;;;;;;5037238;28;20034;-78
2022/03/23 08:31:38;;;;;;;45.28;27.58;;;10.60;99.90;;;;;;5028363;28;20147;-78
2022/03/23 08:34:05;;;;;;;42.92;26.02;;;10.80;99.90;;;;;;5032604;28;20249;-78
2022/03/23 08:36:31;;;;;;;45.55;25.23;;;11.00;99.90;;;;;;5037652;28;20022;-79
2022/03/23 08:38:58;;;;;;;45.22;26.27;;;11.30;99.60;;;;;;5028420;28;20583;-79
2022/03/23 08:41:23;;;;;;;43.90;25.77;;;11.40;99.60;;;;;;5036294;28;20468;-79
2022/03/23 08:43:49;;;;;;;44.33;24.80;;;11.50;99.10;;;;;;5028709;28;20584;-79
2022/03/23 08:46:15;;;;;;;41.15;25.75;;;11.70;98.50;;;;;;5034559;28;20059;-80
2022/03/23 08:48:41;;;;;;;36.67;23.35;;;11.90;98.10;;;;;;5030164;28;20394;-79
2022/03/23 08:51:07;;;;;;;42.53;24.45;;;12.20;97.80;;;;;;5036251;28;20477;-80
2022/03/23 08:53:33;;;;;;;41.63;24.30;;;12.30;97.30;;;;;;5038637;28;20041;-80
2022/03/23 08:55:59;;;;;;;41.53;26.30;;;12.50;98.40;;;;;;5023635;28;20021;-79
2022/03/23 08:58:26;;;;;;;41.35;24.90;;;12.70;97.60;;;;;;5037219;28;20045;-80
2022/03/23 09:00:51;;;;;;;41.40;24.63;;;12.90;97.10;;;;;;5025492;28;20072;-80
2022/03/23 09:03:17;;;;;;;44.42;26.52;;;13.10;96.90;;;;;;5038835;28;20041;-80
2022/03/23 09:05:43;;;;;;;43.80;26.23;;;13.20;97.60;;;;;;5033490;28;20039;-80
2022/03/23 09:08:09;;;;;;;38.15;23.58;;;13.30;97.70;;;;;;5034588;28;20112;-80
2022/03/23 09:10:34;;;;;;;41.40;24.70;;;13.40;97.90;;;;;;5042850;28;20105;-79
2022/03/23 09:13:00;;;;;;;39.58;25.00;;;13.50;98.30;;;;;;5040025;28;20068;-80
2022/03/23 09:15:26;;;;;;;42.25;24.95;;;13.60;97.30;;;;;;5027986;28;20029;-79
2022/03/23 09:17:58;;;;;;;41.70;25.23;;;13.80;96.90;;;;;;5030378;28;20038;-79
2022/03/23 09:20:23;;;;;;;35.00;21.67;;;14.00;96.80;;;;;;5046442;28;20025;-80
2022/03/23 09:22:49;;;;;;;40.22;22.85;;;14.20;94.90;;;;;;5026376;28;20083;-81
2022/03/23 09:25:15;;;;;;;35.90;23.02;;;14.30;93.80;;;;;;5029622;28;20026;-81
2022/03/23 09:27:43;;;;;;;38.33;23.75;;;14.50;95.00;;;;;;5035839;28;20029;-81
2022/03/23 09:30:11;;;;;;;37.95;24.00;;;14.70;95.70;;;;;;5024180;28;20029;-81
2022/03/23 09:32:40;;;;;;;37.40;22.40;;;14.80;93.70;;;;;;5043153;28;20022;-79
2022/03/23 09:35:07;;;;;;;35.83;21.27;;;15.10;93.10;;;;;;5023558;28;20446;-78
2022/03/23 09:37:48;;;;;;;36.45;22.52;;;15.10;92.80;;;;;;5039952;28;20040;-78
2022/03/23 09:40:27;;;;;;;39.72;22.45;;;15.20;92.20;;;;;;5028926;28;20025;-81
2022/03/23 09:42:57;;;;;;;39.55;25.48;;;15.40;92.30;;;;;;5033846;28;20117;-78
2022/03/23 09:48:09;;;;;;;38.97;24.13;;;15.80;91.90;;;;;;5028499;28;20033;-79
2022/03/23 09:50:37;;;;;;;35.40;23.80;;;16.00;91.30;;;;;;5044452;28;20524;-81
2022/03/23 09:53:03;;;;;;;37.33;22.35;;;16.20;90.90;;;;;;5038540;28;20063;-80
2022/03/23 09:55:29;;;;;;;33.90;22.10;;;16.40;91.00;;;;;;5034783;28;20033;-85
2022/03/23 09:58:00;;;;;;;39.17;23.08;;;16.40;89.60;;;;;;5027442;28;20088;-78
2022/03/23 10:00:27;;;;;;;37.80;24.98;;;16.60;89.80;;;;;;5041744;28;20018;-79
2022/03/23 10:03:11;;;;;;;36.97;23.20;;;16.60;86.30;;;;;;5038976;28;20029;-78
2022/03/23 10:05:58;;;;;;;39.45;24.98;;;16.70;86.70;;;;;;5036117;28;20036;-79
2022/03/23 10:08:42;;;;;;;35.08;21.95;;;17.00;87.20;;;;;;5026025;28;20022;-79
2022/03/23 10:11:45;;;;;;;33.90;23.38;;;17.10;88.20;;;;;;5044476;28;20060;-81
2022/03/23 10:14:47;;;;;;;35.80;23.95;;;17.10;86.90;;;;;;5027248;28;20047;-80
2022/03/23 10:17:49;;;;;;;44.13;25.35;;;17.30;86.00;;;;;;5031282;28;20036;-80
2022/03/23 10:20:15;;;;;;;36.58;23.17;;;17.40;84.40;;;;;;5027813;28;20104;-78
2022/03/23 10:22:48;;;;;;;38.00;22.58;;;17.60;84.40;;;;;;5044047;28;20514;-77
2022/03/23 10:25:15;;;;;;;36.42;23.27;;;17.60;83.00;;;;;;5027182;28;20036;-78
2022/03/23 10:27:40;;;;;;;37.63;24.63;;;17.60;82.40;;;;;;5041087;28;20021;-79
2022/03/23 10:30:07;;;;;;;40.00;25.13;;;17.70;81.80;;;;;;5030501;28;20480;-78
2022/03/23 10:32:37;;;;;;;35.88;22.90;;;17.90;85.60;;;;;;5028755;28;20494;-81
2022/03/23 10:35:04;;;;;;;35.25;23.27;;;18.00;80.30;;;;;;5039573;28;20075;-84
2022/03/23 10:37:34;;;;;;;36.10;22.30;;;18.10;82.20;;;;;;5025483;28;20025;-89
2022/03/23 10:40:07;;;;;;;38.58;23.67;;;18.20;80.50;;;;;;5029346;28;20034;-88
2022/03/23 10:42:39;;;;;;;38.25;23.50;;;18.30;83.10;;;;;;5033443;28;20030;-81
2022/03/23 10:45:10;;;;;;;35.15;23.42;;;18.40;81.10;;;;;;5030273;28;20022;-79
2022/03/23 10:47:38;;;;;;;39.05;24.23;;;18.50;82.50;;;;;;5032617;28;20026;-85
2022/03/23 10:50:15;;;;;;;35.05;22.90;;;18.60;79.00;;;;;;5036164;28;20434;-83
2022/03/23 10:52:59;;;;;;;32.70;22.83;;;18.70;77.90;;;;;;5020069;28;20045;-82
2022/03/23 10:55:30;;;;;;;32.75;23.20;;;18.90;75.80;;;;;;5017908;28;20467;-82
2022/03/23 10:57:58;;;;;;;35.13;24.02;;;18.90;77.40;;;;;;5023205;28;20485;-82
2022/03/23 11:00:34;;;;;;;39.83;23.35;;;19.10;75.90;;;;;;5036575;28;20135;-82
2022/03/23 11:03:01;;;;;;;36.70;22.45;;;19.10;75.40;;;;;;5031250;28;20066;-84
2022/03/23 11:05:34;;;;;;;37.92;24.13;;;19.20;77.10;;;;;;5028977;28;20088;-83
2022/03/23 11:08:08;;;;;;;34.75;22.35;;;19.30;73.40;;;;;;5026625;28;20030;-83
2022/03/23 11:16:10;;;;;;;32.47;22.35;;;19.40;74.70;;;;;;5031126;28;20087;-87
2022/03/23 11:18:36;;;;;;;33.85;21.63;;;19.50;74.50;;;;;;5028651;28;20424;-84
2022/03/23 11:21:02;;;;;;;32.97;22.77;;;19.50;72.60;;;;;;5035501;28;20061;-83
2022/03/23 11:23:36;;;;;;;33.80;21.33;;;19.60;69.60;;;;;;5034034;28;20118;-84
2022/03/23 11:26:04;;;;;;;39.75;22.73;;;19.60;68.10;;;;;;5037271;28;20061;-86
2022/03/23 11:28:34;;;;;;;37.55;23.52;;;19.60;72.30;;;;;;5036160;28;20421;-87
2022/03/23 11:31:02;;;;;;;107.80;22.98;;;19.70;71.50;;;;;;5036521;28;20060;-84
2022/03/23 11:33:32;;;;;;;26.67;20.42;;;19.80;73.50;;;;;;5040701;28;20120;-82
2022/03/23 11:35:58;;;;;;;34.88;20.65;;;19.80;76.20;;;;;;5033181;28;20045;-84
2022/03/23 11:38:26;;;;;;;31.75;20.92;;;19.70;67.40;;;;;;5022001;28;20030;-86
2022/03/23 11:40:52;;;;;;;32.85;22.73;;;19.50;70.00;;;;;;5028927;28;20096;-83
2022/03/23 11:43:20;;;;;;;36.15;22.75;;;19.70;70.60;;;;;;5027263;28;20060;-85
2022/03/23 11:45:48;;;;;;;36.47;22.17;;;19.70;70.20;;;;;;5036136;28;20378;-87
2022/03/23 11:48:20;;;;;;;36.60;23.13;;;19.80;70.40;;;;;;5036922;28;20017;-84
2022/03/23 11:50:58;;;;;;;35.30;22.27;;;19.80;67.80;;;;;;5026408;28;20432;-83
2022/03/23 11:53:50;;;;;;;33.25;21.65;;;19.80;68.00;;;;;;5037784;28;20037;-84
2022/03/23 11:56:28;;;;;;;35.38;22.02;;;19.80;68.40;;;;;;5035903;28;20049;-85
2022/03/23 11:58:54;;;;;;;34.88;22.23;;;19.90;68.60;;;;;;5028042;28;20022;-88
2022/03/23 12:01:20;;;;;;;35.78;21.73;;;20.00;70.00;;;;;;5033847;28;20021;-89
2022/03/23 12:04:02;;;;;;;33.72;21.23;;;20.00;69.30;;;;;;5036603;28;20152;-87
2022/03/23 12:06:44;;;;;;;33.20;21.83;;;19.90;72.10;;;;;;5035619;28;20493;-88
2022/03/23 12:09:29;;;;;;;31.35;21.08;;;20.00;70.10;;;;;;5044133;28;20024;-89
2022/03/23 12:11:55;;;;;;;34.60;21.90;;;20.20;69.50;;;;;;5029903;28;20373;-89
2022/03/23 12:14:31;;;;;;;30.02;21.05;;;20.20;67.80;;;;;;5030664;28;20100;-84
2022/03/23 12:16:56;;;;;;;29.90;20.13;;;20.30;66.70;;;;;;5033460;28;20089;-88
2022/03/23 12:19:27;;;;;;;31.80;22.55;;;20.40;69.10;;;;;;5030852;28;20053;-88
2022/03/23 12:21:58;;;;;;;31.70;21.00;;;20.40;65.80;;;;;;5022829;28;20108;-84
2022/03/23 12:24:47;;;;;;;35.28;21.33;;;20.40;69.50;;;;;;5034415;28;20457;-88
2022/03/23 12:27:34;;;;;;;38.97;20.88;;;20.50;67.60;;;;;;5029119;28;20110;-86
2022/03/23 12:30:07;;;;;;;35.97;21.45;;;20.60;65.70;;;;;;5028050;28;20516;-84
2022/03/23 12:32:38;;;;;;;33.83;21.10;;;20.50;65.40;;;;;;5041892;28;20543;-84
2022/03/23 12:35:04;;;;;;;38.47;23.95;;;20.50;65.30;;;;;;5030922;28;20025;-83
2022/03/23 12:37:42;;;;;;;37.80;22.17;;;20.50;64.50;;;;;;5029153;28;20108;-85
2022/03/23 12:40:13;;;;;;;36.40;22.10;;;20.40;64.30;;;;;;5026883;28;20022;-85
2022/03/23 12:42:43;;;;;;;31.23;21.13;;;20.40;65.50;;;;;;5021868;28;20032;-85
2022/03/23 12:45:10;;;;;;;34.10;23.13;;;20.60;68.70;;;;;;5032936;28;20030;-85
2022/03/23 12:47:37;;;;;;;34.20;21.70;;;20.60;66.70;;;;;;5028910;28;20025;-84
2022/03/23 12:57:49;;;;;;;33.88;22.05;;;20.70;67.90;;;;;;5020797;28;20124;-83
2022/03/23 12:58:39;;;;;;;32.30;23.13;;;20.90;65.60;;;;;;5027609;28;20033;-85
2022/03/23 13:01:11;;;;;;;36.72;24.05;;;20.80;66.90;;;;;;5034682;28;20370;-85
2022/03/23 13:03:42;;;;;;;34.55;23.10;;;20.80;64.90;;;;;;5029112;28;20034;-86